sensor_id;sensor_type;location;lat;lon;timestamp;P1;durP1;ratioP1;P2;durP2;ratioP2
60430;SDS011;46285;45.122;20.726;2024-02-14T00:06:10;21.48;;;13.27;;
60430;SDS011;46285;45.122;20.726;2024-02-14T00:16:14;21.48;;;12.30;;
60430;SDS011;46285;45.122;20.726;2024-02-14T00:26:16;21.88;;;12.68;;
60430;SDS011;46285;45.122;20.726;2024-02-14T00:36:18;27.73;;;17.92;;
60430;SDS011;46285;45.122;20.726;2024-02-14T00:46:20;29.42;;;17.88;;
60430;SDS011;46285;45.122;20.726;2024-02-14T00:56:23;22.40;;;13.77;;
60430;SDS011;46285;45.122;20.726;2024-02-14T01:06:26;16.10;;;9.25;;
60430;SDS011;46285;45.122;20.726;2024-02-14T01:16:28;16.60;;;10.05;;
60430;SDS011;46285;45.122;20.726;2024-02-14T01:26:30;13.27;;;8.45;;
60430;SDS011;46285;45.122;20.726;2024-02-14T01:36:32;19.95;;;10.40;;
60430;SDS011;46285;45.122;20.726;2024-02-14T01:46:34;13.80;;;8.13;;
60430;SDS011;46285;45.122;20.726;2024-02-14T01:56:36;12.00;;;7.82;;
60430;SDS011;46285;45.122;20.726;2024-02-14T02:06:38;13.63;;;7.75;;
60430;SDS011;46285;45.122;20.726;2024-02-14T02:16:43;14.27;;;8.25;;
60430;SDS011;46285;45.122;20.726;2024-02-14T02:26:46;16.58;;;10.80;;
60430;SDS011;46285;45.122;20.726;2024-02-14T02:36:48;16.02;;;10.45;;
60430;SDS011;46285;45.122;20.726;2024-02-14T02:46:51;14.77;;;8.18;;
60430;SDS011;46285;45.122;20.726;2024-02-14T02:56:53;12.77;;;7.55;;
60430;SDS011;46285;45.122;20.726;2024-02-14T03:06:55;12.88;;;7.63;;
60430;SDS011;46285;45.122;20.726;2024-02-14T03:16:58;14.00;;;8.05;;
60430;SDS011;46285;45.122;20.726;2024-02-14T03:27:00;15.75;;;7.60;;
60430;SDS011;46285;45.122;20.726;2024-02-14T03:37:05;15.98;;;7.35;;
60430;SDS011;46285;45.122;20.726;2024-02-14T03:47:08;15.30;;;8.27;;
60430;SDS011;46285;45.122;20.726;2024-02-14T03:57:10;11.63;;;7.65;;
60430;SDS011;46285;45.122;20.726;2024-02-14T04:07:13;12.02;;;7.13;;
60430;SDS011;46285;45.122;20.726;2024-02-14T04:17:15;15.82;;;8.50;;
60430;SDS011;46285;45.122;20.726;2024-02-14T04:27:17;13.95;;;7.97;;
60430;SDS011;46285;45.122;20.726;2024-02-14T04:37:19;14.30;;;8.40;;
60430;SDS011;46285;45.122;20.726;2024-02-14T04:47:21;12.80;;;7.50;;
60430;SDS011;46285;45.122;20.726;2024-02-14T04:57:23;15.82;;;9.63;;
60430;SDS011;46285;45.122;20.726;2024-02-14T05:07:26;22.38;;;13.77;;
60430;SDS011;46285;45.122;20.726;2024-02-14T05:17:28;13.57;;;8.35;;
60430;SDS011;46285;45.122;20.726;2024-02-14T05:27:31;12.27;;;7.47;;
60430;SDS011;46285;45.122;20.726;2024-02-14T05:37:33;14.13;;;8.07;;
60430;SDS011;46285;45.122;20.726;2024-02-14T05:47:35;14.75;;;8.88;;
60430;SDS011;46285;45.122;20.726;2024-02-14T05:57:37;15.52;;;9.00;;
60430;SDS011;46285;45.122;20.726;2024-02-14T06:07:39;23.25;;;12.75;;
60430;SDS011;46285;45.122;20.726;2024-02-14T06:17:41;19.15;;;10.43;;
60430;SDS011;46285;45.122;20.726;2024-02-14T06:27:43;14.07;;;9.27;;
60430;SDS011;46285;45.122;20.726;2024-02-14T06:37:45;20.02;;;11.38;;
60430;SDS011;46285;45.122;20.726;2024-02-14T06:47:47;16.20;;;10.27;;
60430;SDS011;46285;45.122;20.726;2024-02-14T06:57:49;16.67;;;10.35;;
60430;SDS011;46285;45.122;20.726;2024-02-14T07:07:51;19.27;;;10.00;;
60430;SDS011;46285;45.122;20.726;2024-02-14T07:17:53;18.60;;;13.65;;
60430;SDS011;46285;45.122;20.726;2024-02-14T07:27:56;23.25;;;16.30;;
60430;SDS011;46285;45.122;20.726;2024-02-14T07:37:58;18.48;;;10.90;;
60430;SDS011;46285;45.122;20.726;2024-02-14T07:48:00;25.25;;;17.42;;
60430;SDS011;46285;45.122;20.726;2024-02-14T07:58:04;16.23;;;10.02;;
60430;SDS011;46285;45.122;20.726;2024-02-14T08:08:06;44.00;;;21.60;;
60430;SDS011;46285;45.122;20.726;2024-02-14T08:18:08;20.38;;;11.85;;
60430;SDS011;46285;45.122;20.726;2024-02-14T08:28:10;24.05;;;14.05;;
60430;SDS011;46285;45.122;20.726;2024-02-14T08:38:12;33.97;;;21.13;;
60430;SDS011;46285;45.122;20.726;2024-02-14T08:48:14;19.60;;;12.38;;
60430;SDS011;46285;45.122;20.726;2024-02-14T08:58:16;33.35;;;20.13;;
60430;SDS011;46285;45.122;20.726;2024-02-14T09:08:18;19.77;;;11.88;;
60430;SDS011;46285;45.122;20.726;2024-02-14T09:18:21;18.83;;;9.70;;
60430;SDS011;46285;45.122;20.726;2024-02-14T09:28:25;21.83;;;14.30;;
60430;SDS011;46285;45.122;20.726;2024-02-14T09:38:32;19.35;;;11.43;;
60430;SDS011;46285;45.122;20.726;2024-02-14T09:48:35;13.77;;;9.90;;
60430;SDS011;46285;45.122;20.726;2024-02-14T09:58:40;12.57;;;7.53;;
60430;SDS011;46285;45.122;20.726;2024-02-14T10:08:42;16.92;;;8.82;;
60430;SDS011;46285;45.122;20.726;2024-02-14T10:18:47;20.95;;;10.80;;
60430;SDS011;46285;45.122;20.726;2024-02-14T10:28:51;15.05;;;9.00;;
60430;SDS011;46285;45.122;20.726;2024-02-14T10:38:53;19.42;;;10.02;;
60430;SDS011;46285;45.122;20.726;2024-02-14T10:48:58;11.32;;;6.85;;
60430;SDS011;46285;45.122;20.726;2024-02-14T10:59:00;24.73;;;14.47;;
60430;SDS011;46285;45.122;20.726;2024-02-14T11:09:04;22.20;;;12.20;;
60430;SDS011;46285;45.122;20.726;2024-02-14T11:19:09;17.83;;;9.80;;
60430;SDS011;46285;45.122;20.726;2024-02-14T11:29:13;19.88;;;16.05;;
60430;SDS011;46285;45.122;20.726;2024-02-14T11:39:17;17.05;;;10.68;;
60430;SDS011;46285;45.122;20.726;2024-02-14T11:49:19;19.40;;;11.13;;
60430;SDS011;46285;45.122;20.726;2024-02-14T11:59:22;29.63;;;17.83;;
60430;SDS011;46285;45.122;20.726;2024-02-14T12:09:24;14.35;;;9.00;;
60430;SDS011;46285;45.122;20.726;2024-02-14T12:19:27;12.98;;;7.60;;
60430;SDS011;46285;45.122;20.726;2024-02-14T12:29:29;16.27;;;10.95;;
60430;SDS011;46285;45.122;20.726;2024-02-14T12:39:31;10.95;;;7.25;;
60430;SDS011;46285;45.122;20.726;2024-02-14T12:49:33;14.52;;;7.85;;
60430;SDS011;46285;45.122;20.726;2024-02-14T12:59:35;19.70;;;11.88;;
60430;SDS011;46285;45.122;20.726;2024-02-14T13:09:38;20.52;;;10.70;;
60430;SDS011;46285;45.122;20.726;2024-02-14T13:19:41;20.33;;;12.15;;
60430;SDS011;46285;45.122;20.726;2024-02-14T13:29:43;28.77;;;15.77;;
60430;SDS011;46285;45.122;20.726;2024-02-14T13:39:45;21.65;;;12.32;;
60430;SDS011;46285;45.122;20.726;2024-02-14T13:49:48;20.90;;;13.25;;
60430;SDS011;46285;45.122;20.726;2024-02-14T13:59:51;14.75;;;9.35;;
60430;SDS011;46285;45.122;20.726;2024-02-14T14:09:55;15.00;;;9.25;;
60430;SDS011;46285;45.122;20.726;2024-02-14T14:19:57;14.52;;;8.65;;
60430;SDS011;46285;45.122;20.726;2024-02-14T14:30:01;25.60;;;11.60;;
60430;SDS011;46285;45.122;20.726;2024-02-14T14:40:05;19.38;;;11.68;;
60430;SDS011;46285;45.122;20.726;2024-02-14T14:50:09;13.18;;;9.43;;
60430;SDS011;46285;45.122;20.726;2024-02-14T15:00:12;24.30;;;16.33;;
60430;SDS011;46285;45.122;20.726;2024-02-14T15:10:14;67.28;;;42.75;;
60430;SDS011;46285;45.122;20.726;2024-02-14T15:20:16;28.85;;;20.83;;
60430;SDS011;46285;45.122;20.726;2024-02-14T15:30:19;32.17;;;17.48;;
60430;SDS011;46285;45.122;20.726;2024-02-14T15:40:39;20.70;;;14.25;;
60430;SDS011;46285;45.122;20.726;2024-02-14T15:50:41;46.85;;;29.50;;
60430;SDS011;46285;45.122;20.726;2024-02-14T16:00:50;44.67;;;27.02;;
60430;SDS011;46285;45.122;20.726;2024-02-14T16:10:52;39.80;;;26.77;;
60430;SDS011;46285;45.122;20.726;2024-02-14T16:20:56;55.38;;;32.60;;
60430;SDS011;46285;45.122;20.726;2024-02-14T16:30:59;52.92;;;35.70;;
60430;SDS011;46285;45.122;20.726;2024-02-14T16:41:01;32.75;;;22.02;;
60430;SDS011;46285;45.122;20.726;2024-02-14T16:51:03;34.85;;;23.88;;
60430;SDS011;46285;45.122;20.726;2024-02-14T17:01:08;47.35;;;32.95;;
60430;SDS011;46285;45.122;20.726;2024-02-14T17:11:14;61.60;;;43.33;;
60430;SDS011;46285;45.122;20.726;2024-02-14T17:21:18;50.08;;;28.73;;
60430;SDS011;46285;45.122;20.726;2024-02-14T17:31:20;69.05;;;38.33;;
60430;SDS011;46285;45.122;20.726;2024-02-14T17:41:22;81.00;;;38.65;;
60430;SDS011;46285;45.122;20.726;2024-02-14T17:51:25;95.13;;;53.95;;
60430;SDS011;46285;45.122;20.726;2024-02-14T18:01:27;115.25;;;57.40;;
60430;SDS011;46285;45.122;20.726;2024-02-14T18:11:29;105.55;;;57.20;;
60430;SDS011;46285;45.122;20.726;2024-02-14T18:21:31;84.47;;;41.35;;
60430;SDS011;46285;45.122;20.726;2024-02-14T18:31:33;184.90;;;94.95;;
60430;SDS011;46285;45.122;20.726;2024-02-14T18:41:36;163.63;;;102.57;;
60430;SDS011;46285;45.122;20.726;2024-02-14T18:51:38;98.13;;;58.55;;
60430;SDS011;46285;45.122;20.726;2024-02-14T19:01:42;113.13;;;65.88;;
60430;SDS011;46285;45.122;20.726;2024-02-14T19:11:47;152.63;;;83.82;;
60430;SDS011;46285;45.122;20.726;2024-02-14T19:21:51;167.10;;;86.90;;
60430;SDS011;46285;45.122;20.726;2024-02-14T19:31:54;143.20;;;77.65;;
60430;SDS011;46285;45.122;20.726;2024-02-14T19:41:57;226.20;;;111.18;;
60430;SDS011;46285;45.122;20.726;2024-02-14T19:52:00;237.50;;;121.20;;
60430;SDS011;46285;45.122;20.726;2024-02-14T20:02:04;222.70;;;100.65;;
60430;SDS011;46285;45.122;20.726;2024-02-14T20:12:06;240.38;;;107.75;;
60430;SDS011;46285;45.122;20.726;2024-02-14T20:22:11;183.10;;;96.07;;
60430;SDS011;46285;45.122;20.726;2024-02-14T20:32:14;127.82;;;70.90;;
60430;SDS011;46285;45.122;20.726;2024-02-14T20:42:17;130.60;;;69.65;;
60430;SDS011;46285;45.122;20.726;2024-02-14T20:52:21;136.55;;;76.82;;
60430;SDS011;46285;45.122;20.726;2024-02-14T21:02:28;130.88;;;79.72;;
60430;SDS011;46285;45.122;20.726;2024-02-14T21:12:31;125.93;;;78.97;;
60430;SDS011;46285;45.122;20.726;2024-02-14T21:22:34;154.10;;;85.00;;
60430;SDS011;46285;45.122;20.726;2024-02-14T21:32:37;116.13;;;67.60;;
60430;SDS011;46285;45.122;20.726;2024-02-14T21:42:41;144.35;;;79.68;;
60430;SDS011;46285;45.122;20.726;2024-02-14T21:52:43;262.13;;;129.63;;
60430;SDS011;46285;45.122;20.726;2024-02-14T22:02:48;200.38;;;104.05;;
60430;SDS011;46285;45.122;20.726;2024-02-14T22:12:57;156.75;;;91.22;;
60430;SDS011;46285;45.122;20.726;2024-02-14T22:23:00;205.27;;;111.40;;
60430;SDS011;46285;45.122;20.726;2024-02-14T22:33:09;199.60;;;107.75;;
60430;SDS011;46285;45.122;20.726;2024-02-14T22:43:12;178.18;;;94.43;;
60430;SDS011;46285;45.122;20.726;2024-02-14T22:53:14;109.70;;;60.67;;
60430;SDS011;46285;45.122;20.726;2024-02-14T23:03:17;62.05;;;36.60;;
60430;SDS011;46285;45.122;20.726;2024-02-14T23:13:19;100.45;;;56.15;;
60430;SDS011;46285;45.122;20.726;2024-02-14T23:23:21;84.60;;;48.53;;
60430;SDS011;46285;45.122;20.726;2024-02-14T23:33:23;174.50;;;87.15;;
60430;SDS011;46285;45.122;20.726;2024-02-14T23:43:29;145.53;;;82.07;;
60430;SDS011;46285;45.122;20.726;2024-02-14T23:53:31;166.13;;;89.20;;
